sensor_id;sensor_type;location;lat;lon;timestamp;pressure;altitude;pressure_sealevel;temperature;humidity
48352;BME280;34163;49.314;6.752;2022-10-23T00:00:48;99526.47;;;6.61;100.00
48352;BME280;34163;49.314;6.752;2022-10-23T00:03:15;99524.72;;;6.60;100.00
48352;BME280;34163;49.314;6.752;2022-10-23T00:05:41;99530.09;;;6.57;100.00
48352;BME280;34163;49.314;6.752;2022-10-23T00:08:06;99515.44;;;6.48;100.00
48352;BME280;34163;49.314;6.752;2022-10-23T00:10:31;99508.41;;;6.49;100.00
48352;BME280;34163;49.314;6.752;2022-10-23T00:13:04;99512.75;;;6.50;100.00
48352;BME280;34163;49.314;6.752;2022-10-23T00:15:29;99512.69;;;6.53;100.00
48352;BME280;34163;49.314;6.752;2022-10-23T00:17:54;99513.56;;;6.52;100.00
48352;BME280;34163;49.314;6.752;2022-10-23T00:20:20;99514.59;;;6.48;100.00
48352;BME280;34163;49.314;6.752;2022-10-23T00:22:45;99512.75;;;6.50;100.00
48352;BME280;34163;49.314;6.752;2022-10-23T00:25:11;99517.28;;;6.46;100.00
48352;BME280;34163;49.314;6.752;2022-10-23T00:27:36;99523.53;;;6.42;100.00
48352;BME280;34163;49.314;6.752;2022-10-23T00:30:03;99516.38;;;6.46;100.00
48352;BME280;34163;49.314;6.752;2022-10-23T00:32:28;99517.31;;;6.45;100.00
48352;BME280;34163;49.314;6.752;2022-10-23T00:34:54;99519.06;;;6.44;100.00
48352;BME280;34163;49.314;6.752;2022-10-23T00:37:19;99519.94;;;6.45;100.00
48352;BME280;34163;49.314;6.752;2022-10-23T00:39:44;99515.50;;;6.47;100.00
48352;BME280;34163;49.314;6.752;2022-10-23T00:42:11;99510.28;;;6.45;100.00
48352;BME280;34163;49.314;6.752;2022-10-23T00:47:06;99505.13;;;6.41;100.00
48352;BME280;34163;49.314;6.752;2022-10-23T00:49:31;99503.38;;;6.41;100.00
48352;BME280;34163;49.314;6.752;2022-10-23T00:51:58;99504.34;;;6.39;100.00
48352;BME280;34163;49.314;6.752;2022-10-23T00:54:25;99508.66;;;6.40;100.00
48352;BME280;34163;49.314;6.752;2022-10-23T00:57:01;99504.34;;;6.39;100.00
48352;BME280;34163;49.314;6.752;2022-10-23T00:59:29;99507.00;;;6.37;100.00
48352;BME280;34163;49.314;6.752;2022-10-23T01:01:55;99504.38;;;6.37;100.00
48352;BME280;34163;49.314;6.752;2022-10-23T01:04:21;99503.38;;;6.41;100.00
48352;BME280;34163;49.314;6.752;2022-10-23T01:09:38;99497.34;;;6.38;100.00
48352;BME280;34163;49.314;6.752;2022-10-23T01:12:31;99501.72;;;6.39;100.00
48352;BME280;34163;49.314;6.752;2022-10-23T03:32:32;99389.63;;;6.31;100.00
48352;BME280;34163;49.314;6.752;2022-10-23T03:34:58;99382.66;;;6.30;100.00
48352;BME280;34163;49.314;6.752;2022-10-23T03:37:23;99386.16;;;6.31;100.00
48352;BME280;34163;49.314;6.752;2022-10-23T03:39:48;99382.72;;;6.29;100.00
48352;BME280;34163;49.314;6.752;2022-10-23T03:42:14;99375.53;;;6.34;100.00
48352;BME280;34163;49.314;6.752;2022-10-23T03:44:41;99377.19;;;6.36;100.00
48352;BME280;34163;49.314;6.752;2022-10-23T03:47:06;99381.53;;;6.38;100.00
48352;BME280;34163;49.314;6.752;2022-10-23T03:49:34;99385.91;;;6.39;100.00
48352;BME280;34163;49.314;6.752;2022-10-23T03:51:59;99384.28;;;6.34;100.00
48352;BME280;34163;49.314;6.752;2022-10-23T03:54:25;99378.97;;;6.36;100.00
48352;BME280;34163;49.314;6.752;2022-10-23T03:56:51;99365.56;;;6.44;100.00
48352;BME280;34163;49.314;6.752;2022-10-23T03:59:16;99358.56;;;6.43;100.00
48352;BME280;34163;49.314;6.752;2022-10-23T04:01:42;99363.03;;;6.41;100.00
48352;BME280;34163;49.314;6.752;2022-10-23T04:04:07;99370.81;;;6.44;100.00
48352;BME280;34163;49.314;6.752;2022-10-23T04:06:32;99378.09;;;6.35;100.00
48352;BME280;34163;49.314;6.752;2022-10-23T04:08:58;99378.81;;;6.41;100.00
48352;BME280;34163;49.314;6.752;2022-10-23T04:11:23;99371.00;;;6.38;100.00
48352;BME280;34163;49.314;6.752;2022-10-23T04:13:48;99364.91;;;6.37;100.00
48352;BME280;34163;49.314;6.752;2022-10-23T04:16:13;99365.75;;;6.38;100.00
48352;BME280;34163;49.314;6.752;2022-10-23T04:18:39;99357.75;;;6.41;100.00
48352;BME280;34163;49.314;6.752;2022-10-23T04:21:05;99362.31;;;6.35;100.00
48352;BME280;34163;49.314;6.752;2022-10-23T04:23:30;99353.31;;;6.43;100.00
48352;BME280;34163;49.314;6.752;2022-10-23T04:25:55;99357.81;;;6.39;100.00
48352;BME280;34163;49.314;6.752;2022-10-23T04:28:21;99346.25;;;6.45;100.00
48352;BME280;34163;49.314;6.752;2022-10-23T04:30:47;99336.72;;;6.41;100.00
48352;BME280;34163;49.314;6.752;2022-10-23T04:33:12;99332.25;;;6.43;100.00
48352;BME280;34163;49.314;6.752;2022-10-23T04:35:37;99335.59;;;6.48;100.00
48352;BME280;34163;49.314;6.752;2022-10-23T04:38:03;99328.72;;;6.44;100.00
48352;BME280;34163;49.314;6.752;2022-10-23T04:40:28;99333.97;;;6.44;100.00
48352;BME280;34163;49.314;6.752;2022-10-23T04:42:53;99328.56;;;6.48;100.00
48352;BME280;34163;49.314;6.752;2022-10-23T04:45:18;99327.06;;;6.40;100.00
48352;BME280;34163;49.314;6.752;2022-10-23T04:47:44;99333.97;;;6.44;100.00
48352;BME280;34163;49.314;6.752;2022-10-23T04:50:09;99331.28;;;6.45;100.00
48352;BME280;34163;49.314;6.752;2022-10-23T04:52:34;99325.22;;;6.43;100.00
48352;BME280;34163;49.314;6.752;2022-10-23T04:55:00;99322.53;;;6.45;100.00
48352;BME280;34163;49.314;6.752;2022-10-23T04:57:25;99313.72;;;6.46;100.00
48352;BME280;34163;49.314;6.752;2022-10-23T04:59:50;99314.56;;;6.48;100.00
48352;BME280;34163;49.314;6.752;2022-10-23T05:02:15;99316.16;;;6.52;100.00
48352;BME280;34163;49.314;6.752;2022-10-23T05:04:41;99313.53;;;6.52;100.00
48352;BME280;34163;49.314;6.752;2022-10-23T05:07:06;99312.47;;;6.58;100.00
48352;BME280;34163;49.314;6.752;2022-10-23T05:09:31;99318.47;;;6.61;100.00
48352;BME280;34163;49.314;6.752;2022-10-23T05:11:56;99316.84;;;6.57;100.00
48352;BME280;34163;49.314;6.752;2022-10-23T05:14:22;99312.31;;;6.62;100.00
48352;BME280;34163;49.314;6.752;2022-10-23T12:48:53;98933.72;;;6.50;100.00
48352;BME280;34163;49.314;6.752;2022-10-23T12:51:34;98932.66;;;6.54;100.00
48352;BME280;34163;49.314;6.752;2022-10-23T12:54:00;98939.03;;;6.48;100.00
48352;BME280;34163;49.314;6.752;2022-10-23T12:56:26;98929.34;;;6.49;100.00
48352;BME280;34163;49.314;6.752;2022-10-23T12:58:53;98938.50;;;6.40;100.00
48352;BME280;34163;49.314;6.752;2022-10-23T13:01:23;98928.56;;;6.47;100.00
48352;BME280;34163;49.314;6.752;2022-10-23T13:03:49;98926.00;;;6.45;100.00
48352;BME280;34163;49.314;6.752;2022-10-23T13:06:15;98921.81;;;6.40;100.00
48352;BME280;34163;49.314;6.752;2022-10-23T13:08:41;98919.31;;;6.36;100.00
48352;BME280;34163;49.314;6.752;2022-10-23T13:11:08;98913.03;;;6.41;100.00
48352;BME280;34163;49.314;6.752;2022-10-23T13:13:37;98910.56;;;6.36;100.00
48352;BME280;34163;49.314;6.752;2022-10-23T13:16:12;98899.38;;;6.31;100.00
48352;BME280;34163;49.314;6.752;2022-10-23T13:18:40;98890.63;;;6.30;100.00
48352;BME280;34163;49.314;6.752;2022-10-23T13:21:19;98891.47;;;6.31;100.00
48352;BME280;34163;49.314;6.752;2022-10-23T13:23:45;98893.31;;;6.29;100.00
48352;BME280;34163;49.314;6.752;2022-10-23T13:28:45;98888.97;;;6.28;100.00
48352;BME280;34163;49.314;6.752;2022-10-23T13:33:43;98878.81;;;6.41;100.00
48352;BME280;34163;49.314;6.752;2022-10-23T13:38:37;98860.38;;;6.41;100.00
48352;BME280;34163;49.314;6.752;2022-10-23T13:41:04;98850.91;;;6.36;100.00
48352;BME280;34163;49.314;6.752;2022-10-23T13:43:30;98853.41;;;6.40;100.00
48352;BME280;34163;49.314;6.752;2022-10-23T13:45:57;98863.56;;;6.27;100.00
48352;BME280;34163;49.314;6.752;2022-10-23T13:48:22;98864.81;;;6.40;100.00
48352;BME280;34163;49.314;6.752;2022-10-23T13:50:48;98865.78;;;6.38;100.00
48352;BME280;34163;49.314;6.752;2022-10-23T13:53:15;98866.13;;;6.28;100.00
48352;BME280;34163;49.314;6.752;2022-10-23T13:55:42;98873.13;;;6.29;100.00
48352;BME280;34163;49.314;6.752;2022-10-23T13:58:08;98868.47;;;6.36;100.00
48352;BME280;34163;49.314;6.752;2022-10-23T14:00:34;98873.84;;;6.33;100.00
48352;BME280;34163;49.314;6.752;2022-10-23T14:03:03;98871.09;;;6.36;100.00
48352;BME280;34163;49.314;6.752;2022-10-23T14:05:28;98860.56;;;6.36;100.00
48352;BME280;34163;49.314;6.752;2022-10-23T14:07:54;98865.28;;;6.28;100.00
48352;BME280;34163;49.314;6.752;2022-10-23T14:10:19;98878.31;;;6.31;100.00
48352;BME280;34163;49.314;6.752;2022-10-23T14:12:44;98890.38;;;6.36;100.00
48352;BME280;34163;49.314;6.752;2022-10-23T14:15:10;98886.22;;;6.31;100.00
48352;BME280;34163;49.314;6.752;2022-10-23T14:17:36;98892.94;;;6.38;100.00
48352;BME280;34163;49.314;6.752;2022-10-23T14:20:02;98895.91;;;6.30;100.00
48352;BME280;34163;49.314;6.752;2022-10-23T14:22:28;98892.25;;;6.33;100.00
48352;BME280;34163;49.314;6.752;2022-10-23T14:27:56;98883.53;;;6.32;100.00
48352;BME280;34163;49.314;6.752;2022-10-23T14:30:21;98881.06;;;6.28;100.00
48352;BME280;34163;49.314;6.752;2022-10-23T14:32:51;98872.34;;;6.27;100.00
48352;BME280;34163;49.314;6.752;2022-10-23T14:35:16;98862.53;;;6.31;100.00
48352;BME280;34163;49.314;6.752;2022-10-23T14:37:41;98848.72;;;6.48;100.00
48352;BME280;34163;49.314;6.752;2022-10-23T14:40:07;98839.47;;;6.38;100.00
48352;BME280;34163;49.314;6.752;2022-10-23T14:42:32;98844.97;;;6.31;100.00
48352;BME280;34163;49.314;6.752;2022-10-23T14:44:58;98837.00;;;6.33;100.00
48352;BME280;34163;49.314;6.752;2022-10-23T14:47:34;98838.25;;;6.24;100.00
48352;BME280;34163;49.314;6.752;2022-10-23T14:50:02;98835.63;;;6.24;100.00
48352;BME280;34163;49.314;6.752;2022-10-23T14:52:27;98838.19;;;6.26;100.00
48352;BME280;34163;49.314;6.752;2022-10-23T14:54:59;98842.56;;;6.25;100.00
48352;BME280;34163;49.314;6.752;2022-10-23T14:57:26;98830.97;;;6.31;100.00
48352;BME280;34163;49.314;6.752;2022-10-23T14:59:52;98834.69;;;6.25;100.00
48352;BME280;34163;49.314;6.752;2022-10-23T15:02:17;98827.28;;;6.35;100.00
48352;BME280;34163;49.314;6.752;2022-10-23T15:04:51;98815.00;;;6.35;100.00
48352;BME280;34163;49.314;6.752;2022-10-23T15:07:16;98809.97;;;6.29;100.00
48352;BME280;34163;49.314;6.752;2022-10-23T15:09:42;98806.63;;;6.26;100.00
48352;BME280;34163;49.314;6.752;2022-10-23T15:12:07;98812.72;;;6.26;100.00
48352;BME280;34163;49.314;6.752;2022-10-23T15:14:32;98817.03;;;6.29;100.00
48352;BME280;34163;49.314;6.752;2022-10-23T15:16:58;98821.34;;;6.30;100.00
48352;BME280;34163;49.314;6.752;2022-10-23T15:19:24;98821.47;;;6.27;100.00
48352;BME280;34163;49.314;6.752;2022-10-23T15:21:49;98815.53;;;6.22;100.00
48352;BME280;34163;49.314;6.752;2022-10-23T15:24:15;98804.19;;;6.21;100.00
48352;BME280;34163;49.314;6.752;2022-10-23T15:26:41;98814.94;;;6.15;100.00
48352;BME280;34163;49.314;6.752;2022-10-23T15:29:09;98815.50;;;6.23;100.00
48352;BME280;34163;49.314;6.752;2022-10-23T15:31:38;98809.31;;;6.24;100.00
48352;BME280;34163;49.314;6.752;2022-10-23T15:36:58;98816.44;;;6.21;100.00
48352;BME280;34163;49.314;6.752;2022-10-23T15:39:25;98822.97;;;6.12;100.00
48352;BME280;34163;49.314;6.752;2022-10-23T15:44:26;98828.16;;;6.13;100.00
48352;BME280;34163;49.314;6.752;2022-10-23T15:46:52;98824.69;;;6.13;100.00
48352;BME280;34163;49.314;6.752;2022-10-23T15:49:18;98818.59;;;6.11;100.00
48352;BME280;34163;49.314;6.752;2022-10-23T15:51:43;98809.56;;;6.18;100.00
48352;BME280;34163;49.314;6.752;2022-10-23T15:54:10;98814.28;;;6.10;100.00
48352;BME280;34163;49.314;6.752;2022-10-23T15:56:40;98810.72;;;6.11;100.00
48352;BME280;34163;49.314;6.752;2022-10-23T15:59:05;98810.16;;;6.03;100.00
48352;BME280;34163;49.314;6.752;2022-10-23T16:01:30;98808.47;;;6.02;100.00
48352;BME280;34163;49.314;6.752;2022-10-23T16:03:56;98816.22;;;6.05;100.00
48352;BME280;34163;49.314;6.752;2022-10-23T16:11:25;98840.94;;;6.00;100.00
48352;BME280;34163;49.314;6.752;2022-10-23T16:13:52;98845.22;;;6.03;100.00
48352;BME280;34163;49.314;6.752;2022-10-23T16:16:18;98843.56;;;6.00;100.00
48352;BME280;34163;49.314;6.752;2022-10-23T16:21:46;98861.13;;;6.00;100.00
48352;BME280;34163;49.314;6.752;2022-10-23T16:24:13;98857.56;;;6.01;100.00
48352;BME280;34163;49.314;6.752;2022-10-23T16:26:39;98866.66;;;5.92;100.00
48352;BME280;34163;49.314;6.752;2022-10-23T16:29:05;98867.38;;;5.96;100.00
48352;BME280;34163;49.314;6.752;2022-10-23T16:31:39;98879.78;;;5.92;100.00
48352;BME280;34163;49.314;6.752;2022-10-23T16:34:27;98881.28;;;5.99;100.00
48352;BME280;34163;49.314;6.752;2022-10-23T16:36:54;98901.38;;;6.02;100.00
48352;BME280;34163;49.314;6.752;2022-10-23T16:39:19;98912.97;;;5.96;100.00
48352;BME280;34163;49.314;6.752;2022-10-23T16:44:35;98939.03;;;6.03;100.00
48352;BME280;34163;49.314;6.752;2022-10-23T16:47:00;98962.66;;;6.04;100.00
48352;BME280;34163;49.314;6.752;2022-10-23T16:49:31;99002.16;;;6.03;100.00
48352;BME280;34163;49.314;6.752;2022-10-23T16:51:56;98992.19;;;6.34;100.00
48352;BME280;34163;49.314;6.752;2022-10-23T16:54:22;98988.22;;;6.24;100.00
48352;BME280;34163;49.314;6.752;2022-10-23T16:56:47;98969.19;;;6.17;100.00
48352;BME280;34163;49.314;6.752;2022-10-23T16:59:12;98967.97;;;6.03;100.00
48352;BME280;34163;49.314;6.752;2022-10-23T17:01:44;98954.81;;;6.03;100.00
48352;BME280;34163;49.314;6.752;2022-10-23T17:04:12;98923.47;;;5.96;100.00
48352;BME280;34163;49.314;6.752;2022-10-23T17:06:42;98892.94;;;5.92;100.00
48352;BME280;34163;49.314;6.752;2022-10-23T17:09:08;98862.41;;;5.88;100.00
48352;BME280;34163;49.314;6.752;2022-10-23T17:11:35;98865.72;;;5.93;100.00
48352;BME280;34163;49.314;6.752;2022-10-23T17:14:21;98873.03;;;5.85;100.00
48352;BME280;34163;49.314;6.752;2022-10-23T17:16:49;98875.50;;;5.90;100.00
48352;BME280;34163;49.314;6.752;2022-10-23T17:19:16;98875.38;;;5.93;100.00
48352;BME280;34163;49.314;6.752;2022-10-23T17:21:42;98867.50;;;5.93;100.00
48352;BME280;34163;49.314;6.752;2022-10-23T17:24:08;98877.28;;;5.89;100.00
48352;BME280;34163;49.314;6.752;2022-10-23T17:26:34;98886.91;;;5.89;100.00
48352;BME280;34163;49.314;6.752;2022-10-23T17:29:20;98886.91;;;5.89;100.00
48352;BME280;34163;49.314;6.752;2022-10-23T17:37:24;98880.53;;;5.96;100.00
48352;BME280;34163;49.314;6.752;2022-10-23T17:39:49;98878.06;;;5.91;100.00
48352;BME280;34163;49.314;6.752;2022-10-23T17:42:14;98878.91;;;5.92;100.00
48352;BME280;34163;49.314;6.752;2022-10-23T17:44:40;98879.19;;;5.86;100.00
48352;BME280;34163;49.314;6.752;2022-10-23T17:47:05;98895.69;;;5.89;100.00
48352;BME280;34163;49.314;6.752;2022-10-23T17:49:30;98888.38;;;5.97;100.00
48352;BME280;34163;49.314;6.752;2022-10-23T17:54:58;98891.91;;;5.96;100.00
48352;BME280;34163;49.314;6.752;2022-10-23T18:00:22;98907.47;;;6.03;100.00
48352;BME280;34163;49.314;6.752;2022-10-23T18:02:47;98909.63;;;5.91;100.00
48352;BME280;34163;49.314;6.752;2022-10-23T18:05:13;98927.34;;;5.86;100.00
48352;BME280;34163;49.314;6.752;2022-10-23T18:10:39;98931.81;;;5.84;100.00
48352;BME280;34163;49.314;6.752;2022-10-23T18:13:04;98936.81;;;5.90;100.00
48352;BME280;34163;49.314;6.752;2022-10-23T18:15:32;98936.13;;;5.85;100.00
48352;BME280;34163;49.314;6.752;2022-10-23T18:18:03;98946.81;;;5.80;100.00
48352;BME280;34163;49.314;6.752;2022-10-23T18:20:32;98956.28;;;5.86;100.00
48352;BME280;34163;49.314;6.752;2022-10-23T18:22:57;98956.94;;;5.91;100.00
48352;BME280;34163;49.314;6.752;2022-10-23T18:25:22;98963.47;;;5.81;100.00
48352;BME280;34163;49.314;6.752;2022-10-23T18:27:49;98956.59;;;5.77;100.00
48352;BME280;34163;49.314;6.752;2022-10-23T18:30:19;98955.22;;;5.90;100.00
48352;BME280;34163;49.314;6.752;2022-10-23T18:32:45;98957.91;;;5.89;100.00
48352;BME280;34163;49.314;6.752;2022-10-23T18:35:10;98955.22;;;5.90;100.00
48352;BME280;34163;49.314;6.752;2022-10-23T18:37:35;98955.47;;;5.84;100.00
48352;BME280;34163;49.314;6.752;2022-10-23T18:40:01;98954.59;;;5.83;100.00
48352;BME280;34163;49.314;6.752;2022-10-23T18:42:26;98958.09;;;5.84;100.00
48352;BME280;34163;49.314;6.752;2022-10-23T18:44:53;98962.66;;;5.79;100.00
48352;BME280;34163;49.314;6.752;2022-10-23T18:47:19;98962.44;;;5.85;100.00
48352;BME280;34163;49.314;6.752;2022-10-23T18:49:44;98946.59;;;5.87;100.00
48352;BME280;34163;49.314;6.752;2022-10-23T18:52:13;98947.47;;;5.87;100.00
48352;BME280;34163;49.314;6.752;2022-10-23T18:54:38;98945.06;;;5.81;100.00
48352;BME280;34163;49.314;6.752;2022-10-23T18:57:04;98944.09;;;5.83;100.00
48352;BME280;34163;49.314;6.752;2022-10-23T18:59:32;98943.75;;;5.93;100.00
48352;BME280;34163;49.314;6.752;2022-10-23T19:01:57;98936.09;;;5.87;100.00
48352;BME280;34163;49.314;6.752;2022-10-23T19:04:22;98941.22;;;5.90;100.00
48352;BME280;34163;49.314;6.752;2022-10-23T19:06:48;98944.13;;;5.82;100.00
48352;BME280;34163;49.314;6.752;2022-10-23T19:09:14;98936.03;;;5.88;100.00
48352;BME280;34163;49.314;6.752;2022-10-23T19:11:39;98947.47;;;5.87;100.00
48352;BME280;34163;49.314;6.752;2022-10-23T19:14:05;98943.47;;;5.77;100.00
48352;BME280;34163;49.314;6.752;2022-10-23T19:16:40;98944.56;;;5.71;100.00
48352;BME280;34163;49.314;6.752;2022-10-23T19:19:14;98946.78;;;5.82;100.00
48352;BME280;34163;49.314;6.752;2022-10-23T19:21:41;98936.47;;;5.76;100.00
48352;BME280;34163;49.314;6.752;2022-10-23T19:24:08;98942.38;;;5.82;100.00
48352;BME280;34163;49.314;6.752;2022-10-23T19:26:34;98936.38;;;5.79;100.00
48352;BME280;34163;49.314;6.752;2022-10-23T19:29:00;98931.47;;;5.70;100.00
48352;BME280;34163;49.314;6.752;2022-10-23T19:31:26;98942.66;;;5.75;100.00
48352;BME280;34163;49.314;6.752;2022-10-23T19:33:51;98936.72;;;5.70;100.00
48352;BME280;34163;49.314;6.752;2022-10-23T19:36:17;98941.78;;;5.74;100.00
48352;BME280;34163;49.314;6.752;2022-10-23T19:38:43;98949.25;;;5.61;100.00
48352;BME280;34163;49.314;6.752;2022-10-23T19:41:08;98940.38;;;5.66;100.00
48352;BME280;34163;49.314;6.752;2022-10-23T19:43:33;98948.25;;;5.66;100.00
48352;BME280;34163;49.314;6.752;2022-10-23T19:45:59;98953.63;;;5.62;100.00
48352;BME280;34163;49.314;6.752;2022-10-23T19:48:24;98947.56;;;5.60;100.00
48352;BME280;34163;49.314;6.752;2022-10-23T19:50:50;98951.09;;;5.59;100.00
48352;BME280;34163;49.314;6.752;2022-10-23T19:53:15;98956.41;;;5.58;100.00
48352;BME280;34163;49.314;6.752;2022-10-23T19:55:40;98965.31;;;5.54;100.00
48352;BME280;34163;49.314;6.752;2022-10-23T19:58:06;98965.22;;;5.57;100.00
48352;BME280;34163;49.314;6.752;2022-10-23T20:00:31;98973.94;;;5.57;100.00
48352;BME280;34163;49.314;6.752;2022-10-23T20:02:56;98971.38;;;5.56;100.00
48352;BME280;34163;49.314;6.752;2022-10-23T20:05:21;98975.06;;;5.50;100.00
48352;BME280;34163;49.314;6.752;2022-10-23T20:07:47;98974.69;;;5.61;100.00
48352;BME280;34163;49.314;6.752;2022-10-23T20:10:13;98976.91;;;5.48;100.00
48352;BME280;34163;49.314;6.752;2022-10-23T20:12:38;98980.22;;;5.53;100.00
48352;BME280;34163;49.314;6.752;2022-10-23T20:15:04;98978.41;;;5.55;100.00
48352;BME280;34163;49.314;6.752;2022-10-23T20:17:29;98987.69;;;5.66;100.00
48352;BME280;34163;49.314;6.752;2022-10-23T20:19:55;98996.91;;;5.52;100.00
48352;BME280;34163;49.314;6.752;2022-10-23T20:22:20;99001.94;;;5.58;100.00
48352;BME280;34163;49.314;6.752;2022-10-23T20:24:46;99010.63;;;5.60;100.00
48352;BME280;34163;49.314;6.752;2022-10-23T20:27:12;99010.75;;;5.57;100.00
48352;BME280;34163;49.314;6.752;2022-10-23T20:29:38;99019.44;;;5.59;100.00
48352;BME280;34163;49.314;6.752;2022-10-23T20:32:04;99011.53;;;5.59;100.00
48352;BME280;34163;49.314;6.752;2022-10-23T20:34:30;99016.00;;;5.57;100.00
48352;BME280;34163;49.314;6.752;2022-10-23T20:36:55;99017.69;;;5.58;100.00
48352;BME280;34163;49.314;6.752;2022-10-23T20:39:21;99022.25;;;5.53;100.00
48352;BME280;34163;49.314;6.752;2022-10-23T20:41:49;99020.41;;;5.57;100.00
48352;BME280;34163;49.314;6.752;2022-10-23T20:44:15;99022.75;;;5.64;100.00
48352;BME280;34163;49.314;6.752;2022-10-23T20:46:41;99011.81;;;5.77;100.00
48352;BME280;34163;49.314;6.752;2022-10-23T20:49:06;99020.94;;;5.67;100.00
48352;BME280;34163;49.314;6.752;2022-10-23T20:51:32;99019.44;;;5.59;100.00
48352;BME280;34163;49.314;6.752;2022-10-23T20:53:57;99015.41;;;5.49;100.00
48352;BME280;34163;49.314;6.752;2022-10-23T20:56:26;99023.41;;;5.46;100.00
48352;BME280;34163;49.314;6.752;2022-10-23T20:59:02;99017.31;;;5.44;100.00
48352;BME280;34163;49.314;6.752;2022-10-23T21:01:28;99015.25;;;5.54;100.00
48352;BME280;34163;49.314;6.752;2022-10-23T21:03:55;99018.94;;;5.48;100.00
48352;BME280;34163;49.314;6.752;2022-10-23T21:06:21;99009.44;;;5.44;100.00
48352;BME280;34163;49.314;6.752;2022-10-23T21:08:46;99019.84;;;5.47;100.00
48352;BME280;34163;49.314;6.752;2022-10-23T21:11:13;99020.81;;;5.44;100.00
48352;BME280;34163;49.314;6.752;2022-10-23T21:13:38;99024.09;;;5.51;100.00
48352;BME280;34163;49.314;6.752;2022-10-23T21:16:10;99020.56;;;5.52;100.00
48352;BME280;34163;49.314;6.752;2022-10-23T21:18:36;99020.63;;;5.51;100.00
48352;BME280;34163;49.314;6.752;2022-10-23T21:21:02;99018.03;;;5.49;100.00
48352;BME280;34163;49.314;6.752;2022-10-23T21:23:27;99023.19;;;5.52;100.00
48352;BME280;34163;49.314;6.752;2022-10-23T21:25:52;99025.94;;;5.49;100.00
48352;BME280;34163;49.314;6.752;2022-10-23T21:28:18;99021.56;;;5.48;100.00
48352;BME280;34163;49.314;6.752;2022-10-23T21:30:43;99027.03;;;5.42;100.00
48352;BME280;34163;49.314;6.752;2022-10-23T21:33:09;99024.19;;;5.48;100.00
48352;BME280;34163;49.314;6.752;2022-10-23T21:35:34;99031.06;;;5.52;100.00
48352;BME280;34163;49.314;6.752;2022-10-23T21:37:59;99020.78;;;5.46;100.00
48352;BME280;34163;49.314;6.752;2022-10-23T21:40:24;99027.72;;;5.47;100.00
48352;BME280;34163;49.314;6.752;2022-10-23T21:42:50;99020.72;;;5.48;100.00
